createdAt,value
2017-07-22T00:01:43.103Z,99.99
2017-07-22T00:02:43.128Z,99.99
2017-07-22T00:03:43.149Z,99.99
2017-07-22T00:04:42.879Z,99.99
2017-07-22T00:05:43.213Z,99.99
2017-07-22T00:06:43.240Z,99.99
2017-07-22T00:07:57.865Z,99.99
2017-07-22T00:08:43.284Z,99.99
2017-07-22T00:09:43.000Z,99.99
2017-07-22T00:10:43.347Z,99.99
2017-07-22T00:11:43.378Z,99.99
2017-07-22T00:12:43.396Z,99.99
2017-07-22T00:13:43.418Z,99.99
2017-07-22T00:14:43.454Z,99.99
2017-07-22T00:15:43.468Z,99.99
2017-07-22T00:16:43.484Z,99.99
2017-07-22T00:18:43.536Z,99.99
2017-07-22T00:19:43.563Z,99.99
2017-07-22T00:20:43.596Z,99.99
2017-07-22T00:21:43.626Z,99.99
2017-07-22T00:22:43.342Z,99.99
2017-07-22T00:23:58.268Z,99.99
2017-07-22T00:24:43.695Z,99.99
2017-07-22T00:25:43.722Z,99.99
2017-07-22T00:26:43.748Z,99.99
2017-07-22T00:27:43.776Z,99.99
2017-07-22T00:28:43.797Z,99.99
2017-07-22T00:30:43.850Z,99.99
2017-07-22T00:31:43.877Z,99.99
2017-07-22T00:32:43.902Z,99.99
2017-07-22T00:33:43.917Z,99.99
2017-07-22T00:34:43.935Z,99.99
2017-07-22T00:35:43.980Z,99.99
2017-07-22T00:36:44.002Z,99.99
2017-07-22T00:37:44.024Z,99.99
2017-07-22T00:38:44.048Z,99.99
2017-07-22T00:39:58.673Z,99.99
2017-07-22T00:40:44.090Z,99.99
2017-07-22T00:41:44.122Z,99.99
2017-07-22T00:42:44.150Z,99.99
2017-07-22T00:44:44.213Z,99.99
2017-07-22T00:45:44.220Z,99.99
2017-07-22T00:46:44.253Z,99.99
2017-07-22T00:47:43.961Z,99.99
2017-07-22T00:48:44.315Z,99.99
2017-07-22T00:49:44.378Z,99.99
2017-07-22T00:50:44.349Z,99.99
2017-07-22T00:51:44.370Z,99.99
2017-07-22T00:52:44.402Z,99.99
2017-07-22T00:53:44.431Z,99.99
2017-07-22T00:54:59.055Z,99.99
2017-07-22T00:55:44.487Z,99.99
2017-07-22T00:56:44.497Z,99.99
2017-07-22T00:57:44.536Z,99.99
2017-07-22T00:58:44.554Z,99.99
2017-07-22T00:59:44.589Z,99.99
2017-07-22T01:00:44.606Z,99.99
2017-07-22T01:01:44.625Z,99.99
2017-07-22T01:02:44.644Z,99.99
2017-07-22T01:03:44.668Z,99.99
2017-07-22T01:04:44.715Z,99.99
2017-07-22T01:05:44.722Z,99.99
2017-07-22T01:06:44.769Z,99.99
2017-07-22T01:07:44.779Z,99.99
2017-07-22T01:08:44.813Z,99.99
2017-07-22T01:09:44.826Z,99.99
2017-07-22T01:10:44.863Z,99.99
2017-07-22T01:11:44.875Z,99.99
2017-07-22T01:12:44.903Z,99.99
2017-07-22T01:13:44.921Z,99.99
2017-07-22T01:14:44.966Z,99.99
2017-07-22T01:15:44.978Z,99.99
2017-07-22T01:16:45.019Z,99.99
2017-07-22T01:17:45.032Z,99.99
2017-07-22T01:19:45.080Z,99.99
2017-07-22T01:20:45.101Z,99.99
2017-07-22T01:21:45.132Z,99.99
2017-07-22T01:22:45.166Z,99.99
2017-07-22T01:23:45.191Z,99.99
2017-07-22T01:24:45.204Z,99.99
2017-07-22T01:25:45.242Z,99.99
2017-07-22T01:26:59.854Z,99.99
2017-07-22T01:27:45.280Z,99.99
2017-07-22T01:28:45.310Z,99.99
2017-07-22T01:29:45.336Z,99.99
2017-07-22T01:30:45.360Z,99.99
2017-07-22T01:32:45.410Z,99.99
2017-07-22T01:33:45.435Z,99.99
2017-07-22T01:34:45.458Z,99.99
2017-07-22T01:35:45.489Z,99.99
2017-07-22T01:37:45.533Z,99.99
2017-07-22T01:38:45.564Z,99.99
2017-07-22T01:39:45.578Z,99.99
2017-07-22T01:40:45.628Z,99.99
2017-07-22T01:41:45.633Z,99.99
2017-07-22T01:43:00.259Z,99.99
2017-07-22T01:43:45.689Z,99.99
2017-07-22T01:44:45.706Z,99.99
2017-07-22T01:45:45.734Z,99.99
2017-07-22T01:46:45.766Z,99.99
2017-07-22T01:47:45.786Z,99.99
2017-07-22T01:48:45.812Z,99.99
2017-07-22T01:49:45.841Z,99.99
2017-07-22T01:50:45.548Z,99.99
2017-07-22T01:51:45.881Z,99.99
2017-07-22T01:52:45.920Z,99.99
2017-07-22T01:53:45.940Z,99.99
2017-07-22T01:54:45.969Z,99.99
2017-07-22T01:55:46.022Z,99.99
2017-07-22T01:56:46.011Z,99.99
2017-07-22T01:57:46.033Z,99.99
2017-07-22T01:59:00.668Z,99.99
2017-07-22T01:59:46.085Z,99.99
2017-07-22T02:00:46.118Z,99.99
2017-07-22T02:01:46.140Z,99.99
2017-07-22T02:02:46.158Z,99.99
2017-07-22T02:03:46.185Z,99.99
2017-07-22T02:04:46.208Z,99.99
2017-07-22T02:05:46.226Z,99.99
2017-07-22T02:06:46.267Z,99.99
2017-07-22T02:07:46.276Z,99.99
2017-07-22T02:09:46.322Z,99.99
2017-07-22T02:10:46.369Z,99.99
2017-07-22T02:11:46.385Z,99.99
2017-07-22T02:12:46.416Z,99.99
2017-07-22T02:13:46.436Z,99.99
2017-07-22T02:15:01.056Z,99.99
2017-07-22T02:15:46.492Z,99.99
2017-07-22T02:17:46.231Z,99.99
2017-07-22T02:18:46.558Z,99.99
2017-07-22T02:19:46.586Z,99.99
2017-07-22T02:22:46.661Z,99.99
2017-07-22T02:23:46.683Z,99.99
2017-07-22T02:24:46.692Z,99.99
2017-07-22T02:25:46.726Z,99.99
2017-07-22T02:26:46.758Z,99.99
2017-07-22T02:27:46.777Z,99.99
2017-07-22T02:28:46.812Z,99.99
2017-07-22T02:30:01.435Z,99.99
2017-07-22T02:30:46.860Z,99.99
2017-07-22T02:31:46.883Z,99.99
2017-07-22T02:32:46.910Z,99.99
2017-07-22T02:33:46.929Z,99.99
2017-07-22T02:35:46.981Z,99.99
2017-07-22T02:36:47.064Z,99.99
2017-07-22T02:37:47.023Z,99.99
2017-07-22T02:38:47.067Z,99.99
2017-07-22T02:41:47.134Z,99.99
2017-07-22T02:42:46.842Z,99.99
2017-07-22T02:43:47.181Z,99.99
2017-07-22T02:44:47.201Z,99.99
2017-07-22T02:45:47.236Z,99.99
2017-07-22T02:46:47.258Z,99.99
2017-07-22T02:47:47.290Z,99.99
2017-07-22T02:48:47.305Z,99.99
2017-07-22T02:49:47.324Z,99.99
2017-07-22T02:50:47.355Z,99.99
2017-07-22T02:52:47.412Z,99.99
2017-07-22T02:53:47.432Z,99.99
2017-07-22T02:54:47.461Z,99.99
2017-07-22T02:55:47.470Z,99.99
2017-07-22T02:56:47.512Z,99.99
2017-07-22T02:57:47.532Z,99.99
2017-07-22T02:58:47.249Z,99.99
2017-07-22T02:59:47.566Z,99.99
2017-07-22T03:00:47.604Z,99.99
2017-07-22T03:02:02.228Z,99.99
2017-07-22T03:02:47.661Z,99.99
2017-07-22T03:03:47.671Z,99.99
2017-07-22T03:04:47.709Z,99.99
2017-07-22T03:05:47.719Z,99.99
2017-07-22T03:06:47.761Z,99.99
2017-07-22T03:07:47.775Z,99.99
2017-07-22T03:08:47.802Z,99.99
2017-07-22T03:09:47.825Z,99.99
2017-07-22T03:10:47.853Z,99.99
2017-07-22T03:11:47.874Z,99.99
2017-07-22T03:12:47.905Z,99.99
2017-07-22T03:13:47.930Z,99.99
2017-07-22T03:14:47.633Z,99.99
2017-07-22T03:15:47.986Z,99.99
2017-07-22T03:16:47.688Z,99.99
2017-07-22T03:18:02.630Z,99.99
2017-07-22T03:18:48.049Z,99.99
2017-07-22T03:19:48.067Z,99.99
2017-07-22T03:20:47.792Z,99.99
2017-07-22T03:22:47.845Z,99.99
2017-07-22T03:23:47.864Z,99.99
2017-07-22T03:24:48.211Z,99.99
2017-07-22T03:25:48.225Z,99.99
2017-07-22T03:26:48.248Z,99.99
2017-07-22T03:28:48.347Z,99.99
2017-07-22T03:29:48.317Z,99.99
2017-07-22T03:30:48.355Z,99.99
2017-07-22T03:31:48.377Z,99.99
2017-07-22T03:32:48.398Z,99.99
2017-07-22T03:34:03.022Z,99.99
2017-07-22T03:34:48.448Z,99.99
2017-07-22T03:35:48.474Z,99.99
2017-07-22T03:36:48.186Z,99.99
2017-07-22T03:37:48.525Z,99.99
2017-07-22T03:38:48.551Z,99.99
2017-07-22T03:39:48.577Z,99.99
2017-07-22T03:40:48.587Z,99.99
2017-07-22T03:41:48.618Z,99.99
2017-07-22T03:42:48.639Z,99.99
2017-07-22T03:43:48.726Z,99.99
2017-07-22T03:44:48.703Z,99.99
2017-07-22T03:45:48.721Z,99.99
2017-07-22T03:46:48.439Z,99.99
2017-07-22T03:47:48.767Z,99.99
2017-07-22T03:48:48.788Z,99.99
2017-07-22T03:50:03.419Z,99.99
2017-07-22T03:50:48.842Z,99.99
2017-07-22T03:51:48.867Z,99.99
2017-07-22T03:52:48.897Z,99.99
2017-07-22T03:53:48.904Z,99.99
2017-07-22T03:54:48.946Z,99.99
2017-07-22T03:55:48.963Z,99.99
2017-07-22T03:56:48.997Z,99.99
2017-07-22T03:57:49.021Z,99.99
2017-07-22T03:58:49.048Z,99.99
2017-07-22T04:01:49.120Z,99.99
2017-07-22T04:02:49.134Z,99.99
2017-07-22T04:03:48.865Z,99.99
2017-07-22T04:05:03.793Z,99.99
2017-07-22T04:05:48.914Z,99.99
2017-07-22T04:06:49.247Z,99.99
2017-07-22T04:07:48.958Z,99.99
2017-07-22T04:08:49.292Z,99.99
2017-07-22T04:09:49.368Z,99.99
2017-07-22T04:10:49.340Z,99.99
2017-07-22T04:11:49.355Z,99.99
2017-07-22T04:12:49.395Z,99.99
2017-07-22T04:13:49.421Z,99.99
2017-07-22T04:15:49.459Z,99.99
2017-07-22T04:16:49.491Z,99.99
2017-07-22T04:17:49.512Z,99.99
2017-07-22T04:18:49.229Z,99.99
2017-07-22T04:19:49.572Z,99.99
2017-07-22T04:20:49.597Z,99.99
2017-07-22T04:21:49.610Z,99.99
2017-07-22T04:22:49.645Z,99.99
2017-07-22T04:23:49.653Z,99.99
2017-07-22T04:24:49.695Z,99.99
2017-07-22T04:25:49.414Z,99.99
2017-07-22T04:28:49.782Z,99.99
2017-07-22T04:29:49.819Z,99.99
2017-07-22T04:30:49.827Z,99.99
2017-07-22T04:32:49.899Z,99.99
2017-07-22T04:33:49.909Z,99.99
2017-07-22T04:34:49.945Z,99.99
2017-07-22T04:35:49.965Z,99.99
2017-07-22T04:37:04.597Z,99.99
2017-07-22T04:37:50.007Z,99.99
2017-07-22T04:38:50.046Z,99.99
2017-07-22T04:39:50.077Z,99.99
2017-07-22T04:40:50.092Z,99.99
2017-07-22T04:41:50.123Z,99.99
2017-07-22T04:42:50.145Z,99.99
2017-07-22T04:43:50.173Z,99.99
2017-07-22T04:44:50.194Z,99.99
2017-07-22T04:45:49.917Z,99.99
2017-07-22T04:46:50.248Z,99.99
2017-07-22T04:47:50.280Z,99.99
2017-07-22T04:48:50.292Z,99.78
2017-07-22T04:49:50.325Z,99.49
2017-07-22T04:50:50.351Z,97.42
2017-07-22T04:51:50.381Z,95.94
2017-07-22T04:53:04.998Z,93.28
2017-07-22T04:53:50.426Z,90.38
2017-07-22T04:54:50.452Z,88.93
2017-07-22T04:55:50.173Z,87.38
2017-07-22T04:56:50.510Z,84.39
2017-07-22T04:57:50.537Z,82.93
2017-07-22T04:58:50.559Z,81.77
2017-07-22T04:59:50.576Z,79.52
2017-07-22T05:00:50.624Z,78.69
2017-07-22T05:01:50.634Z,77.24
2017-07-22T05:03:50.723Z,76.15
2017-07-22T05:04:50.426Z,74.9
2017-07-22T05:05:50.469Z,74.06
2017-07-22T05:06:50.782Z,74.22
2017-07-22T05:07:50.886Z,73.54
2017-07-22T05:09:05.449Z,73.48
2017-07-22T05:09:50.568Z,73.58
2017-07-22T05:10:50.905Z,72.61
2017-07-22T05:11:50.950Z,73.38
2017-07-22T05:12:50.955Z,73.35
2017-07-22T05:13:51.011Z,73.44
2017-07-22T05:14:51.029Z,73.64
2017-07-22T05:15:50.738Z,73.25
2017-07-22T05:16:51.083Z,73.54
2017-07-22T05:17:51.115Z,72.71
2017-07-22T05:18:51.154Z,72.22
2017-07-22T05:19:51.181Z,72.71
2017-07-22T05:20:51.215Z,73.44
2017-07-22T05:21:51.237Z,73.05
2017-07-22T05:22:51.266Z,73.93
2017-07-22T05:23:51.288Z,74.02
2017-07-22T05:25:05.931Z,74.47
2017-07-22T05:25:51.048Z,73.25
2017-07-22T05:26:51.404Z,72.12
2017-07-22T05:27:51.420Z,71.67
2017-07-22T05:28:51.454Z,71.96
2017-07-22T05:29:51.490Z,72.67
2017-07-22T05:31:51.237Z,71.28
2017-07-22T05:32:51.564Z,71.67
2017-07-22T05:34:51.644Z,69.96
2017-07-22T05:35:51.663Z,68.73
2017-07-22T05:36:51.691Z,67.5
2017-07-22T05:38:51.767Z,65.72
2017-07-22T05:40:06.395Z,64
2017-07-22T05:40:51.833Z,63.75
2017-07-22T05:41:51.864Z,64.23
2017-07-22T05:42:51.893Z,61.73
2017-07-22T05:43:51.920Z,63.58
2017-07-22T05:44:51.964Z,63.55
2017-07-22T05:48:52.082Z,66.56
2017-07-22T05:52:52.223Z,67.02
2017-07-22T05:53:52.258Z,67.11
2017-07-22T05:54:52.284Z,67.89
2017-07-22T05:55:52.314Z,67.15
2017-07-22T05:56:52.355Z,66.53
2017-07-22T05:57:52.368Z,66.17
2017-07-22T05:58:52.459Z,66.96
2017-07-22T05:59:52.440Z,66.92
2017-07-22T06:00:52.476Z,67.6
2017-07-22T06:03:52.574Z,69.09
2017-07-22T06:04:52.601Z,69.28
2017-07-22T06:05:52.638Z,69.48
2017-07-22T06:06:52.672Z,70.61
2017-07-22T06:07:52.708Z,70.99
2017-07-22T06:08:52.423Z,70.99
2017-07-22T06:09:52.771Z,70.8
2017-07-22T06:10:52.789Z,70.51
2017-07-22T06:12:07.429Z,69.83
2017-07-22T06:13:52.898Z,68.93
2017-07-22T06:14:52.926Z,68.28
2017-07-22T06:16:52.976Z,67.21
2017-07-22T06:17:53.010Z,65.2
2017-07-22T06:18:53.049Z,62.87
2017-07-22T06:21:53.143Z,59.74
2017-07-22T06:22:53.181Z,60.98
2017-07-22T06:23:52.904Z,61.18
2017-07-22T06:24:53.242Z,60.1
2017-07-22T06:25:53.288Z,60.62
2017-07-22T06:26:53.314Z,59.91
2017-07-22T06:28:07.950Z,58.87
2017-07-22T06:28:53.386Z,58.67
2017-07-22T06:29:53.418Z,58.48
2017-07-22T06:30:53.446Z,58.22
2017-07-22T06:31:53.486Z,56.87
2017-07-22T06:32:53.522Z,56.77
2017-07-22T06:33:53.543Z,55.34
2017-07-22T06:34:53.590Z,55.66
2017-07-22T06:35:53.619Z,57.07
2017-07-22T06:36:53.660Z,58.18
2017-07-22T06:37:53.690Z,58.74
2017-07-22T06:38:53.722Z,57.6
2017-07-22T06:39:53.759Z,58.22
2017-07-22T06:40:53.783Z,57.34
2017-07-22T06:41:53.819Z,57.53
2017-07-22T06:42:53.867Z,58.22
2017-07-22T06:44:08.510Z,57.73
2017-07-22T06:44:53.938Z,58.09
2017-07-22T06:45:53.961Z,58.77
2017-07-22T06:46:53.999Z,60.1
2017-07-22T06:47:54.035Z,60.36
2017-07-22T06:48:54.059Z,60.46
2017-07-22T06:49:54.111Z,59.88
2017-07-22T06:50:54.140Z,60.85
2017-07-22T06:51:54.175Z,60.75
2017-07-22T06:52:54.211Z,62.77
2017-07-22T06:54:54.267Z,61.02
2017-07-22T06:55:54.305Z,60.66
2017-07-22T06:56:54.341Z,59.42
2017-07-22T06:57:54.363Z,59.72
2017-07-22T06:58:54.409Z,59.23
2017-07-22T07:00:09.045Z,59.42
2017-07-22T07:00:54.778Z,58.48
2017-07-22T07:01:54.510Z,57.99
2017-07-22T07:02:54.545Z,58.02
2017-07-22T07:03:54.585Z,58.28
2017-07-22T07:04:54.612Z,55.9
2017-07-22T07:05:54.644Z,55.61
2017-07-22T07:06:54.675Z,56.32
2017-07-22T07:07:54.714Z,55.71
2017-07-22T07:08:54.763Z,56
2017-07-22T07:09:54.769Z,55.93
2017-07-22T07:11:54.849Z,56.1
2017-07-22T07:12:54.876Z,56.29
2017-07-22T07:13:54.923Z,56.68
2017-07-22T07:15:09.553Z,54.66
2017-07-22T07:16:55.029Z,53.66
2017-07-22T07:17:55.055Z,53.47
2017-07-22T07:18:55.087Z,52
2017-07-22T07:19:55.114Z,52.03
2017-07-22T07:20:55.164Z,52.49
2017-07-22T07:21:55.194Z,52.39
2017-07-22T07:22:55.237Z,51.54
2017-07-22T07:23:55.270Z,52.32
2017-07-22T07:24:54.995Z,52.61
2017-07-22T07:25:55.330Z,51.05
2017-07-22T07:26:55.371Z,51.49
2017-07-22T07:27:55.413Z,49.95
2017-07-22T07:28:55.446Z,48.97
2017-07-22T07:29:55.486Z,50.27
2017-07-22T07:30:55.519Z,48.11
2017-07-22T07:31:55.553Z,49.58
2017-07-22T07:32:55.282Z,49.58
2017-07-22T07:33:55.625Z,48.03
2017-07-22T07:34:55.661Z,47.72
2017-07-22T07:35:55.694Z,49.09
2017-07-22T07:36:55.724Z,48.8
2017-07-22T07:37:55.780Z,48.45
2017-07-22T07:38:55.807Z,47.74
2017-07-22T07:39:55.846Z,48.28
2017-07-22T07:40:55.862Z,48.87
2017-07-22T07:41:55.934Z,50.22
2017-07-22T07:42:55.940Z,50.12
2017-07-22T07:43:55.991Z,49.46
2017-07-22T07:44:56.022Z,48.97
2017-07-22T07:45:56.056Z,49.75
2017-07-22T07:47:10.693Z,51.76
2017-07-22T07:47:56.131Z,51.51
2017-07-22T07:48:56.174Z,52.49
2017-07-22T07:49:56.207Z,52.39
2017-07-22T07:50:56.239Z,52.39
2017-07-22T07:51:55.968Z,51.12
2017-07-22T07:52:56.308Z,51.93
2017-07-22T07:53:56.331Z,52.61
2017-07-22T07:55:56.414Z,51.27
2017-07-22T07:56:56.452Z,52.81
2017-07-22T07:57:56.476Z,53.34
2017-07-22T07:58:56.215Z,53.74
2017-07-22T07:59:56.556Z,55.37
2017-07-22T08:00:56.584Z,57.04
2017-07-22T08:01:56.628Z,58.18
2017-07-22T08:03:11.266Z,58.18
2017-07-22T08:03:56.699Z,58.7
2017-07-22T08:04:56.725Z,57.43
2017-07-22T08:05:56.769Z,58.7
2017-07-22T08:06:56.802Z,59.16
2017-07-22T08:07:56.842Z,59.26
2017-07-22T08:08:56.880Z,59.35
2017-07-22T08:09:56.907Z,59.91
2017-07-22T08:10:56.927Z,60.78
2017-07-22T08:11:56.972Z,60.75
2017-07-22T08:12:57.009Z,61.15
2017-07-22T08:13:57.042Z,62.87
2017-07-22T08:14:57.078Z,61.99
2017-07-22T08:15:56.798Z,62.09
2017-07-22T08:16:57.145Z,62.12
2017-07-22T08:17:57.164Z,61.34
2017-07-22T08:19:11.806Z,61.34
2017-07-22T08:19:57.254Z,61.54
2017-07-22T08:20:57.278Z,60.95
2017-07-22T08:21:57.308Z,60.66
2017-07-22T08:23:57.371Z,60.33
2017-07-22T08:24:57.401Z,58.12
2017-07-22T08:25:57.426Z,55.93
2017-07-22T08:26:57.470Z,54.54
2017-07-22T08:27:57.503Z,53.3
2017-07-22T08:28:57.543Z,53.76
2017-07-22T08:29:57.550Z,53.56
2017-07-22T08:30:57.602Z,52.44
2017-07-22T08:31:57.627Z,53.62
2017-07-22T08:32:57.667Z,53.62
2017-07-22T08:33:57.701Z,53.03
2017-07-22T08:35:12.334Z,52.71
2017-07-22T08:35:57.769Z,52.69
2017-07-22T08:36:57.801Z,52.71
2017-07-22T08:37:57.837Z,53.56
2017-07-22T08:38:57.872Z,55.59
2017-07-22T08:39:57.889Z,55.27
2017-07-22T08:40:57.936Z,57.2
2017-07-22T08:41:57.966Z,57.75
2017-07-22T08:42:58.003Z,58.12
2017-07-22T08:43:57.726Z,58.67
2017-07-22T08:44:58.077Z,58.35
2017-07-22T08:45:58.101Z,59.26
2017-07-22T08:46:58.135Z,59.55
2017-07-22T08:47:58.218Z,57.46
2017-07-22T08:48:58.201Z,55.76
2017-07-22T08:50:12.837Z,54.91
2017-07-22T08:50:58.264Z,53.37
2017-07-22T08:51:58.302Z,52.59
2017-07-22T08:52:58.336Z,52.42
2017-07-22T08:53:58.370Z,54.54
2017-07-22T08:54:58.397Z,54.98
2017-07-22T08:55:58.425Z,54.39
2017-07-22T08:56:58.470Z,54.88
2017-07-22T08:57:58.493Z,54.98
2017-07-22T08:58:58.219Z,55.93
2017-07-22T09:00:58.593Z,58.28
2017-07-22T09:01:58.636Z,58.45
2017-07-22T09:02:58.667Z,58.94
2017-07-22T09:03:58.697Z,59.88
2017-07-22T09:05:58.759Z,60.82
2017-07-22T09:06:58.797Z,60.72
2017-07-22T09:08:58.875Z,62.19
2017-07-22T09:09:58.891Z,60.99
2017-07-22T09:10:58.930Z,59.85
2017-07-22T09:11:58.958Z,59.88
2017-07-22T09:12:58.987Z,60.08
2017-07-22T09:13:59.021Z,60.34
2017-07-22T09:14:59.057Z,61.7
2017-07-22T09:15:59.089Z,60.27
2017-07-22T09:16:59.113Z,59.98
2017-07-22T09:17:58.842Z,60.56
2017-07-22T09:18:58.866Z,60.85
2017-07-22T09:19:59.215Z,60.44
2017-07-22T09:20:59.241Z,61.02
2017-07-22T09:22:13.876Z,60.27
2017-07-22T09:22:59.309Z,61.11
2017-07-22T09:23:59.327Z,60.99
2017-07-22T09:24:59.367Z,61.02
2017-07-22T09:25:59.404Z,62.35
2017-07-22T09:26:59.432Z,61.47
2017-07-22T09:27:59.471Z,61.77
2017-07-22T09:28:59.481Z,61.47
2017-07-22T09:29:59.527Z,62.32
2017-07-22T09:30:59.545Z,61.83
2017-07-22T09:31:59.590Z,61.25
2017-07-22T09:32:59.620Z,62.32
2017-07-22T09:34:59.685Z,62.61
2017-07-22T09:35:59.705Z,62.03
2017-07-22T09:36:59.742Z,62.32
2017-07-22T09:38:14.372Z,62.23
2017-07-22T09:38:59.806Z,62.61
2017-07-22T09:39:59.827Z,62.81
2017-07-22T09:40:59.601Z,61.87
2017-07-22T09:41:59.891Z,62.32
2017-07-22T09:42:59.618Z,61.54
2017-07-22T09:43:59.956Z,61.28
2017-07-22T09:44:59.989Z,60.79
2017-07-22T09:46:00.009Z,60.31
2017-07-22T09:47:00.043Z,60.89
2017-07-22T09:48:00.082Z,60.11
2017-07-22T09:49:00.113Z,59.46
2017-07-22T09:49:59.828Z,59.66
2017-07-22T09:51:00.168Z,59.27
2017-07-22T09:52:00.205Z,59.36
2017-07-22T09:53:00.229Z,59.17
2017-07-22T09:54:14.858Z,58.91
2017-07-22T09:55:00.297Z,58.22
2017-07-22T09:56:00.319Z,58.25
2017-07-22T09:57:00.351Z,57.37
2017-07-22T09:58:00.378Z,57.21
2017-07-22T09:59:00.418Z,56.65
2017-07-22T10:00:00.443Z,55.68
2017-07-22T10:01:00.479Z,56.46
2017-07-22T10:02:00.513Z,56.85
2017-07-22T10:03:00.535Z,56.82
2017-07-22T10:04:00.570Z,56.72
2017-07-22T10:05:00.593Z,58.06
2017-07-22T10:06:00.323Z,57.89
2017-07-22T10:07:00.668Z,57.6
2017-07-22T10:08:00.691Z,55.75
2017-07-22T10:09:00.723Z,56.92
2017-07-22T10:10:15.356Z,56.82
2017-07-22T10:11:00.779Z,57.89
2017-07-22T10:12:00.805Z,58.97
2017-07-22T10:13:00.854Z,57.99
2017-07-22T10:14:00.881Z,57.01
2017-07-22T10:15:00.914Z,57.31
2017-07-22T10:16:00.939Z,57.21
2017-07-22T10:17:00.977Z,56.85
2017-07-22T10:18:00.696Z,57.14
2017-07-22T10:19:01.036Z,57.24
2017-07-22T10:21:01.099Z,56.16
2017-07-22T10:22:01.131Z,56.36
2017-07-22T10:23:01.159Z,55.68
2017-07-22T10:24:01.192Z,56.58
2017-07-22T10:25:15.827Z,57.24
2017-07-22T10:26:01.254Z,56.77
2017-07-22T10:27:01.278Z,57.56
2017-07-22T10:28:01.323Z,56
2017-07-22T10:29:01.351Z,55.61
2017-07-22T10:30:01.384Z,56.65
2017-07-22T10:31:01.416Z,56.85
2017-07-22T10:32:01.462Z,58.12
2017-07-22T10:33:01.463Z,58.28
2017-07-22T10:34:01.502Z,58.94
2017-07-22T10:35:01.538Z,59.03
2017-07-22T10:36:01.567Z,58.84
2017-07-22T10:37:01.601Z,59.98
2017-07-22T10:38:01.631Z,59.98
2017-07-22T10:39:01.661Z,60.66
2017-07-22T10:40:01.684Z,59.88
2017-07-22T10:41:01.725Z,59.69
2017-07-22T10:42:01.738Z,60.27
2017-07-22T10:43:01.787Z,58.81
2017-07-22T10:44:01.818Z,59.23
2017-07-22T10:45:01.841Z,58.94
2017-07-22T10:46:01.874Z,58.09
2017-07-22T10:47:01.912Z,57.92
2017-07-22T10:48:01.929Z,57.26
2017-07-22T10:49:01.974Z,57.36
2017-07-22T10:50:01.993Z,55.93
2017-07-22T10:51:02.034Z,56.12
2017-07-22T10:52:02.063Z,56.22
2017-07-22T10:53:02.094Z,55.66
2017-07-22T10:54:02.125Z,55.96
2017-07-22T10:55:02.155Z,56.18
2017-07-22T10:56:02.182Z,55.98
2017-07-22T10:57:16.818Z,55.4
2017-07-22T10:58:01.945Z,54.81
2017-07-22T11:00:02.314Z,54.98
2017-07-22T11:01:02.347Z,55.2
2017-07-22T11:02:02.373Z,56.15
2017-07-22T11:03:02.403Z,56.84
2017-07-22T11:04:02.427Z,57.68
2017-07-22T11:05:02.482Z,57.29
2017-07-22T11:06:02.496Z,58.27
2017-07-22T11:07:02.531Z,57.1
2017-07-22T11:08:02.567Z,57.59
2017-07-22T11:10:02.630Z,57.2
2017-07-22T11:11:02.657Z,56.84
2017-07-22T11:12:02.691Z,57.29
2017-07-22T11:13:17.325Z,56.61
2017-07-22T11:14:02.446Z,57.1
2017-07-22T11:15:02.784Z,57
2017-07-22T11:17:02.841Z,56.64
2017-07-22T11:18:02.881Z,56.27
2017-07-22T11:19:02.910Z,56.37
2017-07-22T11:20:02.944Z,58.33
2017-07-22T11:21:02.978Z,55.79
2017-07-22T11:22:03.009Z,57.25
2017-07-22T11:23:03.029Z,57.03
2017-07-22T11:24:03.087Z,55.86
2017-07-22T11:25:03.109Z,55.88
2017-07-22T11:26:03.132Z,55.66
2017-07-22T11:27:03.166Z,56.45
2017-07-22T11:28:03.185Z,55.76
2017-07-22T11:29:17.830Z,56.64
2017-07-22T11:30:03.252Z,56.93
2017-07-22T11:31:03.299Z,57.23
2017-07-22T11:32:03.329Z,57.23
2017-07-22T11:33:03.355Z,56.84
2017-07-22T11:35:03.418Z,57.35
2017-07-22T11:36:03.457Z,57.35
2017-07-22T11:37:03.479Z,56.81
2017-07-22T11:38:03.519Z,57.32
2017-07-22T11:39:03.552Z,56.81
2017-07-22T11:40:03.567Z,57
2017-07-22T11:41:03.598Z,57.39
2017-07-22T11:42:03.643Z,57.29
2017-07-22T11:43:03.665Z,56.15
2017-07-22T11:44:03.709Z,57.13
2017-07-22T11:45:18.330Z,57.03
2017-07-22T11:46:03.763Z,57.29
2017-07-22T11:47:03.801Z,57.68
2017-07-22T11:48:03.828Z,57.1
2017-07-22T11:49:03.865Z,57.62
2017-07-22T11:50:03.889Z,58.5
2017-07-22T11:51:03.928Z,57.39
2017-07-22T11:52:03.951Z,58.01
2017-07-22T11:53:03.992Z,58.2
2017-07-22T11:54:04.012Z,56.93
2017-07-22T11:55:04.056Z,57.81
2017-07-22T11:56:04.082Z,57.91
2017-07-22T11:57:04.111Z,58.07
2017-07-22T11:58:04.147Z,57.59
2017-07-22T11:59:04.167Z,57.23
2017-07-22T12:00:18.808Z,57.42
2017-07-22T12:01:04.234Z,57.13
2017-07-22T12:02:04.273Z,57.03
2017-07-22T12:03:04.299Z,58.23
2017-07-22T12:04:04.025Z,57.06
2017-07-22T12:05:04.362Z,56.96
2017-07-22T12:06:04.392Z,57.06
2017-07-22T12:07:04.426Z,56.08
2017-07-22T12:08:04.456Z,57.35
2017-07-22T12:09:04.479Z,56.74
2017-07-22T12:11:04.538Z,58.4
2017-07-22T12:12:04.595Z,58.3
2017-07-22T12:13:04.611Z,58.11
2017-07-22T12:14:04.645Z,57.52
2017-07-22T12:15:04.681Z,58.47
2017-07-22T12:16:04.394Z,58.27
2017-07-22T12:17:04.435Z,58.95
2017-07-22T12:18:04.757Z,58.53
2017-07-22T12:19:04.807Z,58.04
2017-07-22T12:20:04.837Z,58.56
2017-07-22T12:21:04.864Z,58.86
2017-07-22T12:22:04.891Z,58.66
2017-07-22T12:23:04.917Z,57.13
2017-07-22T12:24:04.945Z,57.71
2017-07-22T12:25:04.997Z,58.4
2017-07-22T12:26:05.028Z,58.52
2017-07-22T12:27:05.041Z,57.06
2017-07-22T12:28:05.086Z,56.15
2017-07-22T12:29:05.116Z,56.93
2017-07-22T12:30:05.151Z,58.27
2017-07-22T12:31:04.864Z,58.53
2017-07-22T12:32:19.809Z,58.73
2017-07-22T12:33:04.931Z,59.19
2017-07-22T12:34:05.256Z,59.94
2017-07-22T12:35:05.307Z,61.3
2017-07-22T12:36:05.316Z,60.52
2017-07-22T12:38:05.387Z,60.3
2017-07-22T12:40:05.450Z,60.78
2017-07-22T12:41:05.488Z,60.98
2017-07-22T12:42:05.504Z,60.59
2017-07-22T12:43:05.551Z,62.05
2017-07-22T12:44:05.575Z,62.05
2017-07-22T12:45:05.304Z,61.4
2017-07-22T12:46:05.637Z,60.39
2017-07-22T12:47:05.661Z,60.3
2017-07-22T12:48:20.295Z,60.78
2017-07-22T12:49:05.731Z,60.78
2017-07-22T12:50:05.758Z,61.18
2017-07-22T12:51:05.781Z,60.78
2017-07-22T12:53:05.845Z,62.25
2017-07-22T12:54:05.891Z,61.34
2017-07-22T12:55:05.911Z,62.25
2017-07-22T12:56:05.948Z,62.22
2017-07-22T12:57:05.972Z,62.51
2017-07-22T12:58:05.995Z,62.12
2017-07-22T13:00:05.744Z,62.7
2017-07-22T13:01:06.093Z,62.6
2017-07-22T13:02:06.120Z,62.96
2017-07-22T13:03:06.146Z,63.16
2017-07-22T13:04:20.782Z,63.75
2017-07-22T13:05:06.209Z,63.06
2017-07-22T13:06:06.245Z,63.75
2017-07-22T13:07:06.274Z,64.52
2017-07-22T13:08:06.305Z,64.42
2017-07-22T13:09:06.338Z,64.32
2017-07-22T13:10:06.356Z,63.94
2017-07-22T13:11:06.401Z,64.13
2017-07-22T13:12:06.409Z,63.75
2017-07-22T13:13:06.457Z,64.72
2017-07-22T13:14:06.488Z,64.62
2017-07-22T13:15:06.515Z,65.08
2017-07-22T13:16:06.541Z,64.59
2017-07-22T13:17:06.579Z,65.14
2017-07-22T13:18:06.591Z,65.82
2017-07-22T13:19:06.633Z,66.05
2017-07-22T13:20:21.256Z,65.66
2017-07-22T13:21:06.709Z,65.43
2017-07-22T13:22:06.710Z,65.72
2017-07-22T13:23:06.750Z,66.99
2017-07-22T13:24:06.777Z,67.47
2017-07-22T13:25:06.810Z,66.4
2017-07-22T13:26:06.839Z,66.5
2017-07-22T13:27:06.870Z,68.84
2017-07-22T13:28:06.901Z,72.3
2017-07-22T13:30:06.961Z,76.04
2017-07-22T13:31:06.668Z,78.91
2017-07-22T13:32:07.001Z,80.52
2017-07-22T13:33:07.047Z,82.51
2017-07-22T13:34:07.071Z,84.5
2017-07-22T13:35:21.703Z,87.07
2017-07-22T13:36:07.138Z,88.77
2017-07-22T13:37:07.152Z,93.12
2017-07-22T13:38:07.190Z,97.77
2017-07-22T13:39:07.218Z,99.99
2017-07-22T13:40:07.248Z,99.99
2017-07-22T13:41:07.287Z,99.99
2017-07-22T13:42:07.288Z,99.99
2017-07-22T13:43:07.339Z,99.99
2017-07-22T13:44:07.350Z,99.99
2017-07-22T13:45:07.085Z,99.99
2017-07-22T13:46:07.411Z,99.99
2017-07-22T13:47:07.445Z,99.99
2017-07-22T13:48:07.162Z,99.99
2017-07-22T13:49:07.501Z,99.99
2017-07-22T13:51:07.547Z,99.99
2017-07-22T13:52:07.582Z,99.99
2017-07-22T13:53:07.603Z,99.99
2017-07-22T13:54:07.326Z,99.99
2017-07-22T13:55:07.660Z,99.99